Time;durP1;ratioP1;P1;durP2;ratioP2;P2;SDS_P1;SDS_P2;PMS_P1;PMS_P2;Temp;Humidity;BMP_temperature;BMP_pressure;BME280_temperature;BME280_humidity;BME280_pressure;Samples;Min_cycle;Max_cycle;Signal;HPM_P1;HPM_P2
2022/03/15 00:00:45;;;;;;;15.23;9.40;;;5.50;56.00;;;;;;5033085;28;20034;-20
2022/03/15 00:03:12;;;;;;;13.73;9.30;;;5.50;55.40;;;;;;5033121;28;20112;-21
2022/03/15 00:05:38;;;;;;;15.30;9.73;;;5.50;55.30;;;;;;5033456;28;20029;-23
2022/03/15 00:08:06;;;;;;;21.48;15.10;;;5.40;55.60;;;;;;5033154;28;20053;-21
2022/03/15 00:10:32;;;;;;;41.88;29.33;;;5.40;55.70;;;;;;5033560;28;20558;-21
2022/03/15 00:12:58;;;;;;;18.23;12.18;;;5.40;56.60;;;;;;5033648;28;20112;-21
2022/03/15 00:15:25;;;;;;;25.70;15.65;;;5.40;57.90;;;;;;5033287;28;20017;-21
2022/03/15 00:17:52;;;;;;;14.20;9.18;;;5.40;56.40;;;;;;5033295;28;20033;-23
2022/03/15 00:20:22;;;;;;;11.90;7.57;;;5.40;55.90;;;;;;5032656;28;20127;-22
2022/03/15 00:22:49;;;;;;;13.70;8.35;;;5.40;55.70;;;;;;5032923;28;20052;-21
2022/03/15 00:25:17;;;;;;;15.63;9.50;;;5.30;55.50;;;;;;5033107;28;20370;-21
2022/03/15 00:27:45;;;;;;;35.17;23.02;;;5.30;55.40;;;;;;5033222;28;20114;-22
2022/03/15 00:30:12;;;;;;;15.15;9.88;;;5.30;55.60;;;;;;5033674;28;20028;-21
2022/03/15 00:32:39;;;;;;;24.23;16.13;;;5.30;57.50;;;;;;5032811;28;20076;-23
2022/03/15 00:35:11;;;;;;;21.38;12.18;;;5.20;58.90;;;;;;5033146;28;20044;-23
2022/03/15 00:37:37;;;;;;;21.40;14.00;;;5.20;59.40;;;;;;5033672;28;20025;-22
2022/03/15 00:40:07;;;;;;;15.80;9.15;;;5.20;57.20;;;;;;5032795;28;20437;-21
2022/03/15 00:42:33;;;;;;;14.98;9.63;;;5.10;56.70;;;;;;5032836;28;20087;-23
2022/03/15 00:45:01;;;;;;;21.77;13.77;;;5.10;56.40;;;;;;5033392;28;20029;-22
2022/03/15 00:47:28;;;;;;;22.33;13.23;;;5.10;56.20;;;;;;5032665;28;20029;-21
2022/03/15 00:49:54;;;;;;;22.83;14.63;;;5.00;56.50;;;;;;5033488;28;20030;-23
2022/03/15 00:52:20;;;;;;;22.58;13.80;;;5.00;56.60;;;;;;5032811;28;20071;-23
2022/03/15 00:54:47;;;;;;;31.63;20.73;;;5.00;57.70;;;;;;5033002;28;20446;-22
2022/03/15 00:57:13;;;;;;;18.70;11.10;;;4.90;57.90;;;;;;5034219;28;20516;-21
2022/03/15 00:59:40;;;;;;;15.85;9.15;;;4.90;57.60;;;;;;5036631;28;20024;-22
2022/03/15 01:02:06;;;;;;;13.52;8.95;;;4.90;56.80;;;;;;5036287;28;20030;-21
2022/03/15 01:04:32;;;;;;;12.15;7.18;;;4.80;56.50;;;;;;5036176;28;20063;-23
2022/03/15 01:06:58;;;;;;;15.00;8.38;;;4.80;56.40;;;;;;5036615;28;20048;-21
2022/03/15 01:09:24;;;;;;;13.35;7.70;;;4.80;56.40;;;;;;5036205;28;20402;-21
2022/03/15 01:11:50;;;;;;;12.10;7.80;;;4.70;56.20;;;;;;5036407;28;20026;-21
2022/03/15 01:14:16;;;;;;;13.70;8.65;;;4.70;56.10;;;;;;5036095;28;20028;-22
2022/03/15 01:16:43;;;;;;;13.13;8.02;;;4.70;56.20;;;;;;5036078;28;20035;-22
2022/03/15 01:19:08;;;;;;;12.80;7.93;;;4.60;56.00;;;;;;5036089;28;20025;-21
2022/03/15 01:21:37;;;;;;;13.77;7.93;;;4.60;56.10;;;;;;5035218;28;20045;-21
2022/03/15 01:24:10;;;;;;;11.75;6.53;;;4.50;56.00;;;;;;5036181;28;20386;-21
2022/03/15 01:26:40;;;;;;;12.35;7.05;;;4.50;56.00;;;;;;5035672;28;20033;-22
2022/03/15 01:29:06;;;;;;;14.40;8.10;;;4.50;56.10;;;;;;5036076;28;20032;-21
2022/03/15 01:31:32;;;;;;;11.93;7.50;;;4.40;56.40;;;;;;5034504;28;20416;-21
2022/03/15 01:33:58;;;;;;;12.73;7.85;;;4.40;56.10;;;;;;5036080;28;20036;-21
2022/03/15 01:36:24;;;;;;;20.45;11.98;;;4.40;56.10;;;;;;5035477;28;20528;-21
2022/03/15 01:38:53;;;;;;;41.20;24.33;;;4.40;56.50;;;;;;5035697;28;20025;-21
2022/03/15 01:41:21;;;;;;;18.80;12.20;;;4.40;56.50;;;;;;5035635;28;20056;-21
2022/03/15 01:43:48;;;;;;;17.30;11.18;;;4.30;56.90;;;;;;5035562;28;20038;-21
2022/03/15 01:46:15;;;;;;;33.78;22.27;;;4.30;56.60;;;;;;5035374;28;20437;-22
2022/03/15 01:48:41;;;;;;;40.38;22.50;;;4.20;57.30;;;;;;5035537;28;20056;-20
2022/03/15 01:51:09;;;;;;;31.88;18.10;;;4.20;58.00;;;;;;5035497;28;20462;-21
2022/03/15 01:53:37;;;;;;;26.77;16.20;;;4.20;58.20;;;;;;5035700;28;20061;-22
2022/03/15 01:56:03;;;;;;;21.92;13.90;;;4.20;57.70;;;;;;5035387;28;20378;-22
2022/03/15 01:58:29;;;;;;;17.58;10.82;;;4.10;57.40;;;;;;5035387;28;20036;-22
2022/03/15 02:00:55;;;;;;;23.88;13.15;;;4.10;57.50;;;;;;5035527;28;20022;-21
2022/03/15 02:03:21;;;;;;;20.55;11.90;;;4.10;58.80;;;;;;5035308;28;20049;-21
2022/03/15 02:05:47;;;;;;;19.13;12.63;;;4.10;58.90;;;;;;5035194;28;20036;-21
2022/03/15 02:08:16;;;;;;;14.50;9.48;;;4.00;58.00;;;;;;5034907;28;20022;-21
2022/03/15 02:10:43;;;;;;;16.83;9.85;;;4.00;57.40;;;;;;5035409;28;20037;-22
2022/03/15 02:13:10;;;;;;;19.20;11.07;;;4.00;57.90;;;;;;5035461;28;20048;-22
2022/03/15 02:15:37;;;;;;;19.67;12.23;;;4.00;57.50;;;;;;5035293;28;20037;-21
2022/03/15 02:18:05;;;;;;;17.70;10.80;;;4.00;57.80;;;;;;5035328;28;20119;-21
2022/03/15 02:20:31;;;;;;;21.73;12.93;;;4.00;57.50;;;;;;5034556;28;20128;-21
2022/03/15 02:22:57;;;;;;;19.20;12.40;;;4.00;58.90;;;;;;5035271;28;20029;-21
2022/03/15 02:25:24;;;;;;;21.88;14.15;;;4.00;58.30;;;;;;5034870;28;20026;-21
2022/03/15 02:27:51;;;;;;;21.95;13.80;;;4.00;58.40;;;;;;5035454;28;20536;-21
2022/03/15 02:30:18;;;;;;;36.72;24.55;;;4.10;58.90;;;;;;5034484;28;20032;-23
2022/03/15 02:32:47;;;;;;;31.02;20.10;;;4.10;59.30;;;;;;5034962;28;20041;-21
2022/03/15 02:35:15;;;;;;;26.60;18.65;;;4.20;59.00;;;;;;5034720;28;20041;-21
2022/03/15 02:37:42;;;;;;;16.60;9.63;;;4.30;59.60;;;;;;5034679;28;20498;-21
2022/03/15 02:40:09;;;;;;;26.05;16.65;;;4.30;58.40;;;;;;5034796;28;20029;-22
2022/03/15 02:42:35;;;;;;;19.75;12.27;;;4.40;58.10;;;;;;5034368;28;20113;-21
2022/03/15 02:45:02;;;;;;;17.90;10.30;;;4.40;57.80;;;;;;5034491;28;20029;-22
2022/03/15 02:47:28;;;;;;;25.75;16.85;;;4.40;58.30;;;;;;5034467;28;20020;-21
2022/03/15 02:49:54;;;;;;;21.55;13.80;;;4.50;60.10;;;;;;5034677;28;20112;-21
2022/03/15 02:52:20;;;;;;;36.67;22.73;;;4.50;58.20;;;;;;5034254;28;20507;-22
2022/03/15 02:54:47;;;;;;;37.58;22.52;;;4.50;59.10;;;;;;5034281;28;20071;-22
2022/03/15 02:57:13;;;;;;;18.58;11.15;;;4.60;58.80;;;;;;5034257;28;20029;-21
2022/03/15 02:59:39;;;;;;;21.08;13.07;;;4.60;58.40;;;;;;5034533;28;20024;-22
2022/03/15 03:02:07;;;;;;;19.40;9.75;;;4.60;58.30;;;;;;5034063;28;20501;-21
2022/03/15 03:04:34;;;;;;;25.77;14.85;;;4.60;57.70;;;;;;5034258;28;20108;-21
2022/03/15 03:07:01;;;;;;;20.55;13.15;;;4.60;57.30;;;;;;5034091;28;20059;-21
2022/03/15 03:09:29;;;;;;;28.33;17.73;;;4.60;57.50;;;;;;5034261;28;20061;-21
2022/03/15 03:11:57;;;;;;;29.98;19.35;;;4.60;57.90;;;;;;5032738;28;20120;-21
2022/03/15 03:14:24;;;;;;;18.65;10.52;;;4.60;58.20;;;;;;5034009;28;20110;-21
2022/03/15 03:16:51;;;;;;;26.60;16.13;;;4.60;57.90;;;;;;5033748;28;20033;-22
2022/03/15 03:19:18;;;;;;;29.35;17.63;;;4.60;58.10;;;;;;5033011;28;20057;-21
2022/03/15 03:21:44;;;;;;;39.15;26.33;;;4.50;61.10;;;;;;5033848;28;20444;-21
2022/03/15 03:24:10;;;;;;;32.08;21.13;;;4.50;61.50;;;;;;5033993;28;20029;-21
2022/03/15 03:26:38;;;;;;;19.10;12.40;;;4.50;61.10;;;;;;5033854;28;20053;-20
2022/03/15 03:29:09;;;;;;;18.52;11.15;;;4.50;59.60;;;;;;5033906;28;20120;-22
2022/03/15 03:31:39;;;;;;;18.45;11.65;;;4.50;58.70;;;;;;5033883;28;20056;-20
2022/03/15 03:34:06;;;;;;;35.85;23.23;;;4.50;58.50;;;;;;5033839;28;20405;-22
2022/03/15 03:36:34;;;;;;;42.53;27.90;;;4.50;58.40;;;;;;5033695;28;20095;-21
2022/03/15 03:39:00;;;;;;;21.55;12.52;;;4.40;59.00;;;;;;5033863;28;20021;-22
2022/03/15 03:41:26;;;;;;;15.05;9.40;;;4.40;59.10;;;;;;5033798;28;20100;-22
2022/03/15 03:43:52;;;;;;;17.52;10.82;;;4.40;58.70;;;;;;5032212;28;20113;-22
2022/03/15 03:46:18;;;;;;;12.82;6.90;;;4.40;58.80;;;;;;5033465;28;20029;-21
2022/03/15 03:48:44;;;;;;;18.08;10.68;;;4.30;58.30;;;;;;5033329;28;20092;-22
2022/03/15 03:51:13;;;;;;;13.05;7.63;;;4.40;58.50;;;;;;5033701;28;20446;-21
2022/03/15 03:53:40;;;;;;;14.70;8.18;;;4.40;58.40;;;;;;5033304;28;20485;-21
2022/03/15 03:56:06;;;;;;;16.38;9.77;;;4.40;58.50;;;;;;5033194;28;20472;-22
2022/03/15 03:58:33;;;;;;;31.10;18.70;;;4.40;58.60;;;;;;5033123;28;20481;-21
2022/03/15 04:01:00;;;;;;;16.38;8.88;;;4.40;60.30;;;;;;5033676;28;20036;-22
2022/03/15 04:03:28;;;;;;;13.55;7.93;;;4.50;59.10;;;;;;5033280;28;20069;-21
2022/03/15 04:05:55;;;;;;;12.63;6.97;;;4.50;58.50;;;;;;5033474;28;20029;-21
2022/03/15 04:08:22;;;;;;;12.35;6.57;;;4.60;58.30;;;;;;5033195;28;20028;-23
2022/03/15 04:10:49;;;;;;;16.08;11.38;;;4.60;57.90;;;;;;5033727;28;20025;-22
2022/03/15 04:13:18;;;;;;;13.60;8.93;;;4.70;57.90;;;;;;5033288;28;20032;-21
2022/03/15 04:15:48;;;;;;;12.35;7.82;;;4.70;57.70;;;;;;5033046;28;20065;-23
2022/03/15 04:18:15;;;;;;;17.77;10.15;;;4.70;57.40;;;;;;5032888;28;20026;-22
2022/03/15 04:20:42;;;;;;;25.65;15.85;;;4.80;58.30;;;;;;5032871;28;20142;-22
2022/03/15 04:23:10;;;;;;;13.95;8.57;;;4.80;58.30;;;;;;5032953;28;20036;-23
2022/03/15 04:25:37;;;;;;;14.23;8.73;;;4.80;58.60;;;;;;5033321;28;20465;-21
2022/03/15 04:28:04;;;;;;;14.55;9.10;;;4.80;57.90;;;;;;5033237;28;20031;-21
2022/03/15 04:30:32;;;;;;;12.52;7.65;;;4.80;57.90;;;;;;5033122;28;20477;-21
2022/03/15 04:33:01;;;;;;;11.65;6.78;;;4.80;57.70;;;;;;5036882;28;20054;-23
2022/03/15 04:35:29;;;;;;;11.23;6.60;;;4.80;57.60;;;;;;5037231;28;20025;-21
2022/03/15 04:37:56;;;;;;;12.52;7.07;;;4.80;57.50;;;;;;5036877;28;20485;-22
2022/03/15 04:40:22;;;;;;;16.15;10.40;;;4.80;57.50;;;;;;5036555;28;20064;-21
2022/03/15 04:42:52;;;;;;;12.20;7.80;;;4.80;58.70;;;;;;5037106;28;20026;-21
2022/03/15 04:45:19;;;;;;;11.55;7.10;;;4.80;58.20;;;;;;5036802;28;20081;-21
2022/03/15 04:47:46;;;;;;;11.30;6.90;;;4.80;57.50;;;;;;5036576;28;20064;-21
2022/03/15 04:50:12;;;;;;;12.10;7.32;;;4.80;57.50;;;;;;5036594;28;20038;-20
2022/03/15 04:52:38;;;;;;;18.63;12.70;;;4.80;57.50;;;;;;5036382;28;20029;-20
2022/03/15 04:55:05;;;;;;;14.82;9.10;;;4.80;57.70;;;;;;5036558;28;20029;-21
2022/03/15 04:57:32;;;;;;;27.48;18.25;;;4.80;57.80;;;;;;5036833;28;20037;-22
2022/03/15 04:59:58;;;;;;;20.75;14.10;;;4.80;57.80;;;;;;5035272;28;20026;-21
2022/03/15 05:02:24;;;;;;;28.02;16.52;;;4.80;58.60;;;;;;5036765;28;20025;-21
2022/03/15 05:04:51;;;;;;;21.90;14.10;;;4.80;59.10;;;;;;5035174;28;20021;-21
2022/03/15 05:07:18;;;;;;;22.95;14.13;;;4.90;59.70;;;;;;5036326;28;20521;-22
2022/03/15 05:12:28;;;;;;;26.17;16.05;;;4.90;60.60;;;;;;5036173;28;20479;-23
2022/03/15 05:14:54;;;;;;;27.52;17.90;;;4.90;59.60;;;;;;5036212;28;20026;-22
2022/03/15 05:17:20;;;;;;;25.50;15.45;;;5.00;60.60;;;;;;5036249;28;20504;-21
2022/03/15 05:19:47;;;;;;;23.08;14.40;;;5.00;59.20;;;;;;5036337;28;20053;-21
2022/03/15 05:22:13;;;;;;;21.13;12.73;;;5.00;59.60;;;;;;5036084;28;20026;-21
2022/03/15 05:24:39;;;;;;;23.02;13.82;;;5.00;60.10;;;;;;5034799;28;20025;-21
2022/03/15 05:27:05;;;;;;;19.05;11.85;;;5.10;60.30;;;;;;5036422;28;20116;-22
2022/03/15 05:29:30;;;;;;;21.05;12.25;;;5.10;59.80;;;;;;5034673;28;20075;-23
2022/03/15 05:31:56;;;;;;;17.52;13.48;;;5.10;59.70;;;;;;5035846;28;20047;-21
2022/03/15 05:34:22;;;;;;;20.70;12.68;;;5.20;59.90;;;;;;5035640;28;20030;-21
2022/03/15 05:36:51;;;;;;;17.15;10.63;;;5.20;59.70;;;;;;5036128;28;20389;-21
2022/03/15 05:39:17;;;;;;;13.63;8.30;;;5.20;59.60;;;;;;5035762;28;20022;-21
2022/03/15 05:41:43;;;;;;;13.02;7.88;;;5.20;59.20;;;;;;5035703;28;20501;-22
2022/03/15 05:44:09;;;;;;;13.00;7.28;;;5.20;58.90;;;;;;5035142;28;20021;-22
2022/03/15 05:46:35;;;;;;;11.70;6.97;;;5.20;58.70;;;;;;5035486;28;20086;-21
2022/03/15 05:49:01;;;;;;;11.35;6.97;;;5.20;58.50;;;;;;5035501;28;20075;-21
2022/03/15 05:51:27;;;;;;;12.40;7.60;;;5.30;58.30;;;;;;5035848;28;20029;-21
2022/03/15 05:53:53;;;;;;;15.93;10.00;;;5.30;58.20;;;;;;5036038;28;20462;-21
2022/03/15 05:56:19;;;;;;;22.55;13.90;;;5.30;58.80;;;;;;5035188;28;20030;-21
2022/03/15 05:58:46;;;;;;;21.23;12.63;;;5.30;59.10;;;;;;5036277;28;20044;-22
2022/03/15 06:01:12;;;;;;;19.13;13.43;;;5.40;59.90;;;;;;5035317;28;20037;-22
2022/03/15 06:03:39;;;;;;;16.45;9.95;;;5.40;59.90;;;;;;5035531;28;20116;-21
2022/03/15 06:06:04;;;;;;;13.35;8.50;;;5.40;59.80;;;;;;5035221;28;20168;-21
2022/03/15 06:08:30;;;;;;;15.00;8.10;;;5.50;59.30;;;;;;5035007;28;20026;-21
2022/03/15 06:10:57;;;;;;;13.20;8.30;;;5.60;59.20;;;;;;5035044;28;20036;-22
2022/03/15 06:13:23;;;;;;;14.23;9.63;;;5.60;59.10;;;;;;5035135;28;20504;-21
2022/03/15 06:15:49;;;;;;;19.27;12.27;;;5.60;59.20;;;;;;5035698;28;20025;-21
2022/03/15 06:18:15;;;;;;;14.00;9.30;;;5.70;59.30;;;;;;5035075;28;20040;-22
2022/03/15 06:20:41;;;;;;;12.48;8.05;;;5.80;59.10;;;;;;5033600;28;20509;-21
2022/03/15 06:23:07;;;;;;;10.85;7.22;;;5.80;58.60;;;;;;5035311;28;20045;-21
2022/03/15 06:25:33;;;;;;;12.82;7.88;;;5.90;58.40;;;;;;5034892;28;20104;-20
2022/03/15 06:27:59;;;;;;;9.90;6.50;;;5.90;58.70;;;;;;5034897;28;20033;-23
2022/03/15 06:30:25;;;;;;;12.77;8.65;;;5.90;58.40;;;;;;5034860;28;20112;-21
2022/03/15 06:32:53;;;;;;;15.05;10.48;;;6.00;58.00;;;;;;5034643;28;20059;-22
2022/03/15 06:35:20;;;;;;;20.88;10.65;;;6.00;58.20;;;;;;5034634;28;20025;-22
2022/03/15 06:37:47;;;;;;;13.48;8.82;;;6.10;59.00;;;;;;5034986;28;20112;-21
2022/03/15 06:40:24;;;;;;;25.73;15.88;;;6.10;58.90;;;;;;5034419;28;20030;-22
2022/03/15 06:42:52;;;;;;;32.55;19.92;;;6.20;58.80;;;;;;5034590;28;20512;-22
2022/03/15 06:45:18;;;;;;;32.47;20.08;;;6.20;59.40;;;;;;5034734;28;20096;-22
2022/03/15 06:47:44;;;;;;;32.42;20.15;;;6.40;61.30;;;;;;5034540;28;20025;-21
2022/03/15 06:50:13;;;;;;;35.85;22.13;;;6.40;59.80;;;;;;5034684;28;20556;-21
2022/03/15 06:52:45;;;;;;;36.60;22.95;;;6.50;61.70;;;;;;5034691;28;20083;-21
2022/03/15 06:55:12;;;;;;;35.17;19.42;;;6.60;60.70;;;;;;5033713;28;20072;-21
2022/03/15 06:57:39;;;;;;;41.45;25.33;;;6.70;61.90;;;;;;5035077;28;20040;-21
2022/03/15 07:00:07;;;;;;;43.90;25.88;;;6.80;62.00;;;;;;5034212;28;20079;-21
2022/03/15 07:02:33;;;;;;;43.20;28.52;;;6.90;62.40;;;;;;5034165;28;20057;-21
2022/03/15 07:04:59;;;;;;;33.03;21.67;;;6.90;62.90;;;;;;5034139;28;20481;-21
2022/03/15 07:07:24;;;;;;;35.80;21.35;;;7.00;63.80;;;;;;5034453;28;20114;-21
2022/03/15 07:09:50;;;;;;;33.60;21.70;;;7.10;62.80;;;;;;5034289;28;20110;-21
2022/03/15 07:12:16;;;;;;;42.03;27.65;;;7.10;63.70;;;;;;5033907;28;20159;-21
2022/03/15 07:14:45;;;;;;;41.60;26.52;;;7.30;63.50;;;;;;5032253;28;20037;-21
2022/03/15 07:17:21;;;;;;;37.83;24.63;;;7.30;63.30;;;;;;5131746;27;20597;-20
2022/03/15 07:19:47;;;;;;;42.75;27.13;;;7.40;63.70;;;;;;5131449;28;20035;-20
2022/03/15 07:22:13;;;;;;;54.55;32.75;;;7.40;63.60;;;;;;5131625;28;20501;-20
2022/03/15 07:24:39;;;;;;;30.67;19.40;;;7.50;63.90;;;;;;5131645;28;20024;-20
2022/03/15 07:27:05;;;;;;;41.58;26.73;;;7.60;63.50;;;;;;5131281;28;20153;-20
2022/03/15 07:29:31;;;;;;;38.88;24.65;;;7.80;63.90;;;;;;5113005;28;20041;-20
2022/03/15 07:31:58;;;;;;;42.67;26.20;;;7.80;64.00;;;;;;5131059;28;20058;-23
2022/03/15 07:34:24;;;;;;;48.63;30.92;;;7.90;62.90;;;;;;5131071;28;20034;-20
2022/03/15 07:36:50;;;;;;;55.05;34.17;;;8.00;63.10;;;;;;5131094;28;20023;-20
2022/03/15 07:39:16;;;;;;;38.65;23.33;;;8.10;64.10;;;;;;5131095;28;20023;-20
2022/03/15 07:41:43;;;;;;;38.20;24.70;;;8.20;62.80;;;;;;5131326;28;20027;-20
2022/03/15 07:44:12;;;;;;;48.95;30.48;;;8.20;61.80;;;;;;5131268;28;20380;-20
2022/03/15 07:46:40;;;;;;;37.70;24.13;;;8.30;61.10;;;;;;5130990;28;20028;-20
2022/03/15 07:49:07;;;;;;;57.75;36.08;;;8.40;63.60;;;;;;5131749;28;20031;-20
2022/03/15 07:51:34;;;;;;;50.78;30.40;;;8.50;64.30;;;;;;5130822;28;20076;-20
2022/03/15 07:54:00;;;;;;;41.63;25.27;;;8.60;63.80;;;;;;5130790;28;20422;-20
2022/03/15 07:56:25;;;;;;;42.05;25.83;;;8.70;62.90;;;;;;5130430;28;20028;-20
2022/03/15 07:58:51;;;;;;;51.17;31.05;;;8.90;63.30;;;;;;5131592;28;20058;-21
2022/03/15 08:01:17;;;;;;;39.58;25.65;;;9.00;64.40;;;;;;5130531;28;20110;-20
2022/03/15 08:03:43;;;;;;;35.95;22.75;;;9.10;63.20;;;;;;5130771;28;20020;-21
2022/03/15 08:06:09;;;;;;;40.78;26.10;;;9.20;62.60;;;;;;5130566;28;20026;-20
2022/03/15 08:08:35;;;;;;;59.75;35.58;;;9.40;62.70;;;;;;5130671;28;20023;-20
2022/03/15 08:11:06;;;;;;;37.05;24.27;;;9.50;62.70;;;;;;5130477;28;20028;-20
2022/03/15 08:13:34;;;;;;;33.60;20.65;;;9.70;62.40;;;;;;5130460;28;20023;-20
2022/03/15 08:16:01;;;;;;;36.10;23.38;;;9.80;61.60;;;;;;5129991;28;20059;-20
2022/03/15 08:18:27;;;;;;;43.53;27.60;;;9.90;61.80;;;;;;5130339;28;20023;-21
2022/03/15 08:20:53;;;;;;;41.45;26.38;;;10.10;62.20;;;;;;5130781;28;20371;-20
2022/03/15 08:23:21;;;;;;;40.00;26.55;;;10.20;61.40;;;;;;5130593;28;20031;-20
2022/03/15 08:25:48;;;;;;;30.70;20.05;;;10.40;61.50;;;;;;5130524;28;20023;-20
2022/03/15 08:28:13;;;;;;;30.25;19.85;;;10.50;61.00;;;;;;5119031;28;20399;-21
2022/03/15 08:30:39;;;;;;;38.05;23.10;;;10.60;60.30;;;;;;5117044;28;20019;-21
2022/03/15 08:33:05;;;;;;;30.70;19.58;;;10.80;60.50;;;;;;5116630;28;20106;-21
2022/03/15 08:35:31;;;;;;;35.72;24.42;;;10.90;60.50;;;;;;5116858;28;20063;-21
2022/03/15 08:37:57;;;;;;;27.48;19.00;;;11.00;59.80;;;;;;5116435;28;20028;-21
2022/03/15 08:40:23;;;;;;;32.45;21.83;;;11.20;59.30;;;;;;5116042;28;20069;-21
2022/03/15 08:42:49;;;;;;;36.15;24.48;;;11.30;58.90;;;;;;5116699;28;20570;-21
2022/03/15 08:45:16;;;;;;;30.02;18.50;;;11.40;59.50;;;;;;5116714;28;20087;-21
2022/03/15 08:47:42;;;;;;;30.98;21.42;;;11.50;58.80;;;;;;5115963;28;20077;-21
2022/03/15 08:50:09;;;;;;;36.13;24.48;;;11.60;59.20;;;;;;5116219;28;20058;-21
2022/03/15 08:52:35;;;;;;;27.05;18.80;;;11.70;59.00;;;;;;5115869;28;20103;-21
2022/03/15 08:55:02;;;;;;;28.75;19.83;;;11.80;58.30;;;;;;5115886;28;20031;-21
2022/03/15 08:57:29;;;;;;;32.63;22.65;;;11.90;58.40;;;;;;5115908;28;20035;-21
2022/03/15 08:59:55;;;;;;;26.50;17.92;;;11.90;58.00;;;;;;5116151;28;20023;-21
2022/03/15 09:02:21;;;;;;;26.33;18.17;;;12.00;58.30;;;;;;5115688;28;20119;-21
2022/03/15 09:04:47;;;;;;;32.03;22.70;;;12.10;58.60;;;;;;5115764;28;20111;-21
2022/03/15 09:07:14;;;;;;;35.97;23.75;;;12.20;58.10;;;;;;5116009;28;20096;-21
2022/03/15 09:09:40;;;;;;;22.15;14.95;;;12.20;58.00;;;;;;5115961;28;20028;-21
2022/03/15 09:12:06;;;;;;;26.88;18.55;;;12.30;57.70;;;;;;5115942;28;20372;-21
2022/03/15 09:14:32;;;;;;;22.73;15.20;;;12.40;57.90;;;;;;5115671;28;20031;-21
2022/03/15 09:16:59;;;;;;;25.25;17.92;;;12.40;57.40;;;;;;5115329;28;20036;-21
2022/03/15 09:19:26;;;;;;;36.70;21.42;;;12.50;57.20;;;;;;5115433;28;20487;-21
2022/03/15 09:21:52;;;;;;;31.73;20.40;;;12.60;58.00;;;;;;5115415;28;20027;-22
2022/03/15 09:24:18;;;;;;;21.38;14.57;;;12.60;57.80;;;;;;5115186;28;20031;-21
2022/03/15 09:26:44;;;;;;;26.73;17.80;;;12.70;57.10;;;;;;5115311;28;20052;-21
2022/03/15 09:29:12;;;;;;;23.60;16.27;;;12.70;57.50;;;;;;5115665;28;20094;-21
2022/03/15 09:31:39;;;;;;;24.40;16.88;;;12.80;57.40;;;;;;5115130;28;20035;-21
2022/03/15 09:34:05;;;;;;;24.00;17.88;;;12.90;57.40;;;;;;5115830;28;20019;-21
2022/03/15 09:36:31;;;;;;;21.90;15.70;;;12.90;57.40;;;;;;5114967;28;20027;-21
2022/03/15 09:38:58;;;;;;;22.30;14.77;;;12.90;57.20;;;;;;5114729;28;20051;-22
2022/03/15 09:41:26;;;;;;;16.17;11.20;;;13.00;57.10;;;;;;5115295;28;20026;-21
2022/03/15 09:43:55;;;;;;;21.05;14.63;;;13.00;56.80;;;;;;5115311;28;20085;-21
2022/03/15 09:46:22;;;;;;;18.88;13.52;;;13.10;56.70;;;;;;5114638;28;20023;-21
2022/03/15 09:48:57;;;;;;;14.20;9.63;;;13.10;56.70;;;;;;5114931;28;20062;-21
2022/03/15 09:51:26;;;;;;;15.30;10.00;;;13.20;56.20;;;;;;5115168;28;20046;-22
2022/03/15 09:53:55;;;;;;;16.92;11.80;;;13.30;56.30;;;;;;5115170;28;20089;-21
2022/03/15 09:56:21;;;;;;;23.30;16.00;;;13.40;56.20;;;;;;5114441;28;20564;-21
2022/03/15 09:58:47;;;;;;;17.23;12.15;;;13.40;56.00;;;;;;5114729;28;20023;-21
2022/03/15 10:01:17;;;;;;;18.77;12.82;;;13.50;55.90;;;;;;5114657;28;20027;-20
2022/03/15 10:03:43;;;;;;;14.35;10.10;;;13.50;55.80;;;;;;5115280;28;20031;-21
2022/03/15 10:06:09;;;;;;;13.43;8.98;;;13.60;55.70;;;;;;5096400;28;20019;-20
2022/03/15 10:08:35;;;;;;;14.73;10.23;;;13.60;55.60;;;;;;5114655;28;20023;-20
2022/03/15 10:11:02;;;;;;;17.90;13.02;;;13.70;55.50;;;;;;5114766;28;20057;-21
2022/03/15 10:13:28;;;;;;;20.58;14.60;;;13.70;55.50;;;;;;5114779;28;20062;-21
2022/03/15 10:15:58;;;;;;;16.10;11.23;;;13.80;55.40;;;;;;5114059;28;20083;-21
2022/03/15 10:18:24;;;;;;;17.00;11.55;;;13.80;55.30;;;;;;5114252;28;20023;-21
2022/03/15 10:20:50;;;;;;;18.10;12.35;;;13.90;55.40;;;;;;5114258;28;20027;-21
2022/03/15 10:23:17;;;;;;;28.90;19.67;;;13.90;55.50;;;;;;5114209;28;20020;-21
2022/03/15 10:25:51;;;;;;;22.35;15.68;;;13.90;55.40;;;;;;5114193;28;20502;-21
2022/03/15 10:28:19;;;;;;;27.02;18.02;;;14.00;55.20;;;;;;5114162;28;20483;-21
2022/03/15 10:30:46;;;;;;;20.27;13.98;;;14.00;55.40;;;;;;5114732;28;20020;-21
2022/03/15 10:33:14;;;;;;;16.67;12.52;;;14.10;55.20;;;;;;5113985;28;20020;-21
2022/03/15 10:35:47;;;;;;;19.85;14.93;;;14.10;55.10;;;;;;5113958;28;20020;-21
2022/03/15 10:38:13;;;;;;;17.05;11.77;;;14.20;55.10;;;;;;5114069;28;20482;-21
2022/03/15 10:40:49;;;;;;;15.85;11.07;;;14.20;55.00;;;;;;5114488;28;20034;-21
2022/03/15 10:43:19;;;;;;;19.50;13.45;;;14.30;55.00;;;;;;5114224;28;20102;-21
2022/03/15 10:45:50;;;;;;;16.65;11.50;;;14.40;54.90;;;;;;5114258;28;20035;-21
2022/03/15 10:48:23;;;;;;;17.48;11.32;;;14.40;54.60;;;;;;5113909;28;20047;-21
2022/03/15 10:50:52;;;;;;;20.48;14.57;;;14.50;54.60;;;;;;5113536;28;20028;-21
2022/03/15 10:53:20;;;;;;;21.02;13.88;;;14.50;54.60;;;;;;5113757;28;20024;-21
2022/03/15 10:55:46;;;;;;;21.38;15.57;;;14.50;54.50;;;;;;5113924;28;20027;-21
2022/03/15 10:58:15;;;;;;;19.58;14.82;;;14.60;54.50;;;;;;5113634;28;20039;-21
2022/03/15 11:00:43;;;;;;;24.25;18.08;;;14.60;54.30;;;;;;5113690;28;20558;-21
2022/03/15 11:03:19;;;;;;;22.83;17.17;;;14.70;54.30;;;;;;5113636;28;20026;-21
2022/03/15 11:05:48;;;;;;;24.58;18.65;;;14.70;54.20;;;;;;5113691;28;20519;-21
2022/03/15 11:08:17;;;;;;;18.77;14.40;;;14.80;54.30;;;;;;5113319;28;20031;-22
2022/03/15 11:10:49;;;;;;;12.57;8.93;;;14.80;54.10;;;;;;5113499;28;20088;-21
2022/03/15 11:13:17;;;;;;;25.52;19.00;;;14.80;53.90;;;;;;5113504;28;20426;-21
2022/03/15 11:15:46;;;;;;;14.20;9.32;;;14.90;54.00;;;;;;5113162;28;20084;-21
2022/03/15 11:18:13;;;;;;;19.27;14.13;;;14.90;53.80;;;;;;5113386;28;20088;-21
2022/03/15 11:20:51;;;;;;;21.77;16.65;;;15.00;53.80;;;;;;5113421;28;20422;-21
2022/03/15 11:23:20;;;;;;;17.08;12.18;;;15.00;53.80;;;;;;5113519;28;20483;-21
2022/03/15 11:25:48;;;;;;;19.45;14.05;;;15.10;53.60;;;;;;5113355;28;20028;-20
2022/03/15 11:28:25;;;;;;;15.93;11.63;;;15.10;53.50;;;;;;5113604;28;20024;-22
2022/03/15 11:30:53;;;;;;;14.93;10.80;;;15.20;53.30;;;;;;5113688;28;20028;-21
2022/03/15 11:33:21;;;;;;;16.77;11.07;;;15.30;53.20;;;;;;5113453;28;20024;-20
2022/03/15 11:35:47;;;;;;;13.45;9.68;;;15.30;53.10;;;;;;5113243;28;20031;-20
2022/03/15 11:38:14;;;;;;;21.65;15.75;;;15.40;53.00;;;;;;5113133;28;20028;-24
2022/03/15 11:40:42;;;;;;;25.60;18.92;;;15.40;52.90;;;;;;5113554;28;20036;-21
2022/03/15 11:43:34;;;;;;;24.42;17.13;;;15.40;52.90;;;;;;5113538;28;20152;-21
2022/03/15 11:46:16;;;;;;;26.70;19.23;;;15.40;52.90;;;;;;5113280;28;20036;-21
2022/03/15 11:48:59;;;;;;;21.45;15.45;;;15.50;52.80;;;;;;5113436;28;20020;-20
2022/03/15 11:51:47;;;;;;;19.60;13.73;;;15.50;52.70;;;;;;5113548;28;20028;-21
2022/03/15 11:54:37;;;;;;;17.65;11.93;;;15.50;52.70;;;;;;5113139;28;20552;-21
2022/03/15 11:57:10;;;;;;;23.75;16.08;;;15.50;52.50;;;;;;5113486;28;20031;-21
2022/03/15 11:59:52;;;;;;;20.30;15.40;;;15.60;52.40;;;;;;5113208;28;20103;-20
2022/03/15 12:02:44;;;;;;;20.45;14.27;;;15.60;52.30;;;;;;5113623;28;20057;-21
2022/03/15 12:05:17;;;;;;;26.08;20.30;;;15.70;52.20;;;;;;5117018;28;20429;-21
2022/03/15 12:08:05;;;;;;;24.83;18.00;;;15.70;51.90;;;;;;5116903;28;20035;-21
2022/03/15 12:10:37;;;;;;;22.35;16.23;;;15.70;52.00;;;;;;5116680;28;20437;-21
2022/03/15 12:13:06;;;;;;;22.92;15.38;;;15.80;51.90;;;;;;5116821;28;20027;-21
2022/03/15 12:15:36;;;;;;;16.63;11.60;;;15.80;51.80;;;;;;5116988;28;20079;-21
2022/03/15 12:18:18;;;;;;;23.17;17.35;;;15.90;51.70;;;;;;5116627;28;20024;-21
2022/03/15 12:20:48;;;;;;;21.45;15.68;;;15.90;51.70;;;;;;5116690;28;20024;-21
2022/03/15 12:23:27;;;;;;;16.08;9.85;;;15.90;51.60;;;;;;5116600;28;20023;-21
2022/03/15 12:25:57;;;;;;;18.75;12.35;;;15.90;51.60;;;;;;5116922;28;20024;-21
2022/03/15 12:28:29;;;;;;;16.60;11.15;;;15.90;51.50;;;;;;5116364;28;20058;-21
2022/03/15 12:31:07;;;;;;;21.52;15.50;;;16.00;51.40;;;;;;5116709;28;20031;-21
2022/03/15 12:33:34;;;;;;;15.80;9.90;;;16.00;51.40;;;;;;5117193;28;20027;-21
2022/03/15 12:36:06;;;;;;;21.17;14.65;;;16.00;51.40;;;;;;5116326;28;20059;-21
2022/03/15 12:38:35;;;;;;;13.40;9.77;;;16.00;51.30;;;;;;5116053;28;20035;-21
2022/03/15 12:41:01;;;;;;;17.77;12.55;;;16.00;51.30;;;;;;5116601;28;20051;-21